LPLAKTEB

Guest
Details From LPLA - LAJES
To KTEB - Teterboro
Flight Number -
Tags decoded
Created
Modified
Stats Distance 2,144 nm / 3,971 km
Max Altitude 0 ft / 0 m
Waypoints 2
Social Downloads 0
Likes 0
Share VATSIM

Download

Looking for another format? Having issues loading an existing format? Contact us
Advertisement - Login to hide

Notes

Requested: LPLA KTEB

Route

LPLA KTEB

ID Type Via Altitude Latitude Longitude Leg Dist Tot Dist Heading (true) Name
O LPLA APT - 0 ft / 0 m 38.76441˚ -27.09348˚ - 0 nm - LAJES
O KTEB APT - 0 ft / 0 m 40.85025˚ -74.06093˚ 2144 nm 2144 nm 289° / 258° Teterboro

Altitude Profile

Advertisement - Login to hide

Weather


0- 5 10 15 20 25 30 35+ Temperature / ° C

Clouds and Precipitation
Forecast for 2018-05-24 12:00 UTC. Updated 2 hours ago

Ground ~20,000 ft ~40,000 ft Winds

LPLA

Details ICAO LPLA (TER)
Name LAJES
Region Portugal
Timezone Atlantic/Azores (UTC+0.0)
Stats Elevation 180 ft / 55 m (AMSL)
Location 38.764410° -27.093482°
Runways 1
Magnetic Variation 8.871° W

METAR

LPLA 241300Z /////KT 9999 FEW014 19/15 Q1026

Decode

TAF

TAF TAF LPLA 241106Z 2412/2512 35010KT 9999 FEW015 SCT030 BECMG 2417/2420 09005KT SCT010 BKN020 PROB40 TEMPO 2418/2512 4000 -DZRA SCT005 BKN009

Decode

Departure Runways

ID Width Length Bearing (true) Bearing (mag) Surface Threshold Offset Overrun Length
15 197 ft / 60 m 10,869 ft / 3,313 m 140.81° 149.68° Asphalt 0 ft / 0 m 991 ft / 302 m
33 197 ft / 60 m 10,869 ft / 3,313 m 320.82° 329.69° Asphalt 0 ft / 0 m 1,040 ft / 317 m

KTEB

Details ICAO KTEB (TEB)
Name Teterboro
Region United States
Timezone America/New_York (UTC-4.0)
Stats Elevation 9 ft / 3 m (AMSL)
Location 40.850251° -74.060933°
Runways 2
Magnetic Variation 12.891° W

METAR

KTEB 241251Z 35007KT 10SM CLR 22/08 A3012 RMK AO2 SLP200 T02220083

Decode

TAF

KTEB 241123Z 2412/2518 35008KT P6SM SKC FM242100 VRB05KT P6SM SKC FM242300 17007KT P6SM SKC FM250100 20004KT P6SM SKC FM251400 24010KT P6SM FEW060 FM251700 23014G21KT P6SM FEW060

Decode

Destination Runways

ID Width Length Bearing (true) Bearing (mag) Surface Threshold Offset Overrun Length
01 150 ft / 46 m 7,011 ft / 2,137 m 3.17° 16.06° Asphalt 771 ft / 235 m 98 ft / 30 m
06 150 ft / 46 m 6,009 ft / 1,832 m 48.03° 60.92° Asphalt 0 ft / 0 m 98 ft / 30 m
19 150 ft / 46 m 7,011 ft / 2,137 m 183.17° 196.06° Asphalt 771 ft / 235 m 98 ft / 30 m
24 150 ft / 46 m 6,009 ft / 1,832 m 228.04° 240.93° Asphalt 0 ft / 0 m 98 ft / 30 m

Approach Navaids

Runway Type Ident Frequency Range Bearing (true) Bearing (mag) Slope Elevation
06 Localiser ITEB 108.90 MHz 18 nm / 33 km 48.05° 60.95° - 9 ft / 3 m (AMSL)
06 Glidescope ITEB 108.90 MHz 10 nm / 19 km 48.04° 60.93° 3.00° 6 ft / 2 m (AMSL)
19 Localiser ITJL 110.15 MHz 18 nm / 33 km 183.17° 196.06° - 6 ft / 2 m (AMSL)
19 Glidescope ITJL 110.15 MHz 10 nm / 19 km 183.17° 196.06° 3.00° 6 ft / 2 m (AMSL)
19 DME ITJL 110.15 MHz 18 nm / 33 km - - - 6 ft / 2 m (AMSL)

Popular Alternatives